Time;durP1;ratioP1;P1;durP2;ratioP2;P2;SDS_P1;SDS_P2;PMS_P1;PMS_P2;Temp;Humidity;BMP_temperature;BMP_pressure;BME280_temperature;BME280_humidity;BME280_pressure;Samples;Min_cycle;Max_cycle;Signal;HPM_P1;HPM_P2
2022/12/31 00:01:38;;;;;;;14.63;7.07;;;13.90;99.90;;;;;;5030793;28;20484;-62
2022/12/31 00:04:05;;;;;;;13.83;6.80;;;14.00;99.90;;;;;;5047678;28;21366;-61
2022/12/31 00:06:33;;;;;;;14.53;6.90;;;14.00;99.90;;;;;;5035826;28;20503;-62
2022/12/31 00:09:04;;;;;;;17.93;9.63;;;14.00;99.90;;;;;;5028430;28;21019;-62
2022/12/31 00:11:32;;;;;;;13.63;6.33;;;14.00;99.90;;;;;;5018994;28;20467;-62
2022/12/31 00:13:59;;;;;;;29.40;8.40;;;14.00;99.90;;;;;;5039811;28;21055;-63
2022/12/31 00:16:27;;;;;;;9.33;5.40;;;14.10;99.90;;;;;;5037105;28;20470;-62
2022/12/31 00:18:58;;;;;;;21.00;10.93;;;14.20;99.90;;;;;;5031189;28;20900;-62
2022/12/31 00:21:25;;;;;;;16.10;5.27;;;14.20;99.90;;;;;;5039470;28;20857;-61
2022/12/31 00:23:52;;;;;;;15.90;9.13;;;14.20;99.90;;;;;;5033632;28;20478;-62
2022/12/31 00:26:23;;;;;;;11.10;6.03;;;14.30;99.90;;;;;;5034174;28;21459;-62
2022/12/31 00:28:51;;;;;;;14.23;5.77;;;14.20;99.90;;;;;;5027333;28;21042;-62
2022/12/31 00:31:19;;;;;;;7.53;5.00;;;14.30;99.90;;;;;;5019761;28;20481;-64
2022/12/31 00:33:46;;;;;;;13.73;8.77;;;14.40;99.90;;;;;;5028022;28;20492;-62
2022/12/31 00:36:15;;;;;;;8.57;5.00;;;14.40;99.90;;;;;;5029819;28;20479;-62
2022/12/31 00:38:45;;;;;;;5.97;4.70;;;14.30;99.90;;;;;;5041491;28;20483;-62
2022/12/31 00:41:13;;;;;;;9.60;5.50;;;14.30;99.90;;;;;;5032829;28;20774;-62
2022/12/31 00:43:41;;;;;;;10.10;6.27;;;;;;;;;;5029066;28;20484;-62
2022/12/31 00:46:08;;;;;;;14.17;5.77;;;14.30;99.90;;;;;;5029764;28;21051;-62
2022/12/31 00:48:36;;;;;;;16.93;6.20;;;14.40;99.90;;;;;;5030047;28;20480;-62
2022/12/31 00:51:05;;;;;;;12.30;8.13;;;14.40;99.90;;;;;;5030733;28;20502;-62
2022/12/31 00:53:32;;;;;;;8.20;6.10;;;14.40;99.90;;;;;;5034053;28;20480;-62
2022/12/31 00:56:03;;;;;;;24.23;6.93;;;16.20;99.90;;;;;;5046800;27;20490;-63
2022/12/31 00:58:29;;;;;;;7.20;5.27;;;14.40;99.90;;;;;;5075612;27;20467;-63
2022/12/31 01:00:57;;;;;;;18.83;8.97;;;14.30;99.90;;;;;;5070100;27;21100;-62
2022/12/31 01:03:25;;;;;;;15.63;5.67;;;14.40;99.90;;;;;;5052500;27;20487;-62
2022/12/31 01:05:51;;;;;;;14.70;9.13;;;14.30;99.90;;;;;;5073151;27;20478;-62
2022/12/31 01:08:18;;;;;;;8.80;5.63;;;14.40;99.90;;;;;;5054361;27;20479;-62
2022/12/31 01:13:32;;;;;;;15.70;6.43;;;14.30;99.90;;;;;;5050297;27;20577;-63
2022/12/31 01:16:06;;;;;;;20.30;8.87;;;14.40;99.90;;;;;;5068409;27;21044;-62
2022/12/31 01:18:33;;;;;;;9.50;5.27;;;14.30;99.90;;;;;;5042344;28;21091;-62
2022/12/31 01:21:02;;;;;;;18.93;9.87;;;;;;;;;;5061627;27;20929;-62
2022/12/31 01:23:29;;;;;;;11.80;4.97;;;14.30;99.90;;;;;;5063969;27;20629;-62
2022/12/31 01:25:56;;;;;;;12.80;7.10;;;14.40;99.90;;;;;;5042285;27;20882;-62
2022/12/31 01:28:22;;;;;;;7.30;4.47;;;14.50;99.90;;;;;;5075165;27;20481;-62
2022/12/31 01:30:49;;;;;;;18.63;9.83;;;14.50;99.90;;;;;;5051776;27;20516;-62
2022/12/31 01:33:17;;;;;;;5.87;4.07;;;14.50;99.90;;;;;;5067501;27;20519;-63
2022/12/31 01:35:44;;;;;;;8.37;5.27;;;14.50;99.90;;;;;;5063675;27;20479;-62
2022/12/31 01:38:10;;;;;;;13.10;5.60;;;14.50;99.90;;;;;;5051482;27;20670;-62
2022/12/31 01:40:38;;;;;;;10.73;7.37;;;14.60;99.90;;;;;;5052182;27;20533;-62
2022/12/31 01:43:14;;;;;;;10.00;6.00;;;14.70;99.90;;;;;;5036514;27;20490;-62
2022/12/31 01:45:42;;;;;;;11.13;4.53;;;14.60;99.90;;;;;;5074895;27;20475;-63
2022/12/31 01:48:11;;;;;;;8.70;5.20;;;14.80;99.90;;;;;;5062081;27;20478;-63
2022/12/31 01:50:41;;;;;;;12.03;4.87;;;14.80;99.90;;;;;;5063023;27;20491;-62
2022/12/31 01:53:10;;;;;;;7.77;4.97;;;14.70;99.90;;;;;;5047794;27;20463;-62
2022/12/31 01:55:44;;;;;;;10.23;6.27;;;14.80;99.90;;;;;;5053938;27;20500;-62
2022/12/31 01:58:15;;;;;;;6.90;5.00;;;14.80;99.90;;;;;;5059544;27;20487;-63
2022/12/31 02:00:42;;;;;;;7.57;4.80;;;14.80;99.90;;;;;;5054230;27;20657;-62
2022/12/31 02:03:09;;;;;;;7.77;4.90;;;14.80;99.90;;;;;;5059604;27;20490;-62
2022/12/31 02:05:43;;;;;;;9.03;5.27;;;14.80;99.90;;;;;;5047661;27;21268;-62
2022/12/31 02:08:10;;;;;;;9.73;5.90;;;14.80;99.90;;;;;;5045611;27;20486;-62
2022/12/31 02:10:37;;;;;;;12.50;5.07;;;14.80;99.90;;;;;;5053188;27;20478;-62
2022/12/31 02:13:04;;;;;;;10.83;5.93;;;14.80;99.90;;;;;;5074302;27;20482;-62
2022/12/31 02:15:37;;;;;;;7.20;4.90;;;14.90;99.90;;;;;;5062699;27;20493;-62
2022/12/31 02:18:11;;;;;;;14.13;6.17;;;14.80;99.90;;;;;;5052888;27;20509;-62
2022/12/31 02:21:27;;;;;;;9.00;5.00;;;14.90;99.90;;;;;;5047645;27;20481;-62
2022/12/31 02:24:23;;;;;;;11.90;7.27;;;14.90;99.90;;;;;;5038006;27;20909;-62
2022/12/31 02:26:57;;;;;;;20.10;10.70;;;14.90;99.90;;;;;;5046544;27;20472;-63
2022/12/31 02:30:01;;;;;;;5.70;3.83;;;14.90;99.90;;;;;;5033740;28;20476;-62
2022/12/31 02:32:34;;;;;;;7.20;5.03;;;15.00;99.90;;;;;;5078072;27;21227;-63
2022/12/31 02:35:08;;;;;;;12.33;7.73;;;15.00;99.90;;;;;;5057947;27;20942;-62
2022/12/31 02:37:36;;;;;;;9.90;6.47;;;15.00;99.90;;;;;;5084253;27;20542;-62
2022/12/31 02:40:07;;;;;;;13.30;5.73;;;15.10;99.90;;;;;;5087511;27;20484;-62
2022/12/31 02:42:34;;;;;;;6.13;3.77;;;15.00;99.90;;;;;;5080229;27;20486;-62
2022/12/31 02:45:02;;;;;;;19.73;5.90;;;15.10;99.90;;;;;;5057838;28;20471;-62
2022/12/31 02:47:43;;;;;;;12.33;4.87;;;15.10;99.90;;;;;;5073250;28;20486;-62
2022/12/31 02:50:25;;;;;;;11.30;5.93;;;15.10;99.90;;;;;;5070271;28;20962;-62
2022/12/31 02:53:03;;;;;;;10.70;6.70;;;15.10;99.90;;;;;;5047427;27;20478;-61
2022/12/31 02:55:37;;;;;;;5.97;4.37;;;15.20;99.90;;;;;;5067747;27;20535;-62
2022/12/31 02:58:10;;;;;;;10.43;5.50;;;15.20;99.90;;;;;;5077541;27;20771;-62
2022/12/31 03:03:28;;;;;;;11.90;5.13;;;15.10;99.90;;;;;;5053476;28;20558;-62
2022/12/31 03:05:56;;;;;;;13.80;7.70;;;15.20;99.90;;;;;;5065214;28;20477;-62
2022/12/31 03:08:25;;;;;;;9.67;4.13;;;15.30;99.90;;;;;;5093131;27;20489;-62
2022/12/31 03:10:51;;;;;;;17.23;9.30;;;15.30;99.90;;;;;;5064250;28;20463;-62
2022/12/31 03:13:17;;;;;;;8.40;5.00;;;15.30;99.90;;;;;;5049878;27;20991;-62
2022/12/31 03:15:45;;;;;;;12.93;4.47;;;15.40;99.90;;;;;;5101897;27;20511;-62
2022/12/31 03:18:14;;;;;;;10.47;5.97;;;15.40;99.90;;;;;;5073066;28;20247;-62
2022/12/31 03:23:35;;;;;;;8.50;4.97;;;15.50;99.90;;;;;;5015704;28;20495;-62
2022/12/31 03:26:02;;;;;;;18.37;7.43;;;15.50;99.90;;;;;;5025981;28;20541;-61
2022/12/31 03:28:30;;;;;;;8.67;4.67;;;15.60;99.90;;;;;;5031746;28;20866;-62
2022/12/31 03:31:00;;;;;;;13.83;6.93;;;15.60;99.90;;;;;;5050534;28;20994;-62
2022/12/31 03:33:31;;;;;;;7.30;4.60;;;16.00;99.90;;;;;;5063386;28;20474;-61
2022/12/31 03:35:58;;;;;;;20.73;8.70;;;15.50;99.90;;;;;;5066906;28;20483;-61
2022/12/31 03:38:25;;;;;;;6.27;3.93;;;15.50;99.90;;;;;;5064933;27;20736;-62
2022/12/31 03:40:53;;;;;;;9.50;5.43;;;15.40;99.90;;;;;;5077056;28;20487;-61
2022/12/31 03:43:20;;;;;;;13.23;4.50;;;15.60;99.90;;;;;;5084820;27;20489;-61
2022/12/31 03:45:48;;;;;;;8.37;5.07;;;15.50;99.90;;;;;;5077241;27;20490;-61
2022/12/31 03:48:16;;;;;;;7.27;3.00;;;15.50;99.90;;;;;;5082798;27;20477;-62
2022/12/31 03:50:43;;;;;;;8.30;5.03;;;15.60;99.90;;;;;;5099982;27;20495;-61
2022/12/31 03:53:10;;;;;;;7.97;5.00;;;15.40;99.90;;;;;;5086538;27;20821;-61
2022/12/31 03:55:37;;;;;;;15.83;3.80;;;15.60;99.90;;;;;;5093403;27;20494;-61
2022/12/31 03:58:03;;;;;;;6.73;4.43;;;15.50;99.90;;;;;;5076944;28;20466;-61
2022/12/31 04:00:30;;;;;;;7.57;4.17;;;15.60;99.90;;;;;;5082712;27;20481;-61
2022/12/31 04:02:57;;;;;;;17.43;6.97;;;15.60;99.90;;;;;;5088528;28;21173;-61
2022/12/31 04:05:25;;;;;;;5.67;3.90;;;15.60;99.90;;;;;;5086182;27;20903;-61
2022/12/31 04:07:54;;;;;;;7.50;5.20;;;15.60;99.90;;;;;;5068424;28;20524;-62
2022/12/31 04:10:21;;;;;;;12.33;5.50;;;15.50;99.90;;;;;;5060269;28;20477;-61
2022/12/31 04:12:48;;;;;;;11.20;6.20;;;15.60;99.90;;;;;;5065270;27;20503;-62
2022/12/31 04:15:18;;;;;;;7.20;5.10;;;15.60;99.90;;;;;;5068777;28;20493;-61
2022/12/31 04:17:45;;;;;;;15.67;5.20;;;15.50;99.90;;;;;;5070635;28;20874;-62
2022/12/31 04:20:12;;;;;;;8.87;6.00;;;15.60;99.90;;;;;;5091365;27;20995;-62
2022/12/31 04:22:40;;;;;;;7.03;4.97;;;15.60;99.90;;;;;;5073308;28;21333;-62
2022/12/31 04:25:10;;;;;;;11.13;4.40;;;15.50;99.90;;;;;;5066051;28;20479;-61
2022/12/31 04:27:37;;;;;;;6.77;4.60;;;15.50;99.90;;;;;;5053795;27;20558;-61
2022/12/31 04:30:05;;;;;;;10.03;5.90;;;15.60;99.90;;;;;;5062518;28;20480;-62
2022/12/31 04:32:32;;;;;;;10.67;6.20;;;15.50;99.90;;;;;;5068534;28;20478;-62
2022/12/31 04:34:58;;;;;;;14.47;7.50;;;15.60;99.90;;;;;;5070588;28;20484;-62
2022/12/31 04:37:25;;;;;;;8.03;3.70;;;;;;;;;;5060407;28;20474;-62
2022/12/31 04:39:53;;;;;;;10.60;6.27;;;15.70;99.90;;;;;;5053695;28;20533;-62
2022/12/31 04:42:20;;;;;;;6.00;3.80;;;15.70;99.90;;;;;;5050519;27;21063;-62
2022/12/31 04:44:47;;;;;;;13.50;6.87;;;15.60;99.90;;;;;;5087476;27;20879;-62
2022/12/31 04:47:13;;;;;;;8.30;5.03;;;15.70;99.90;;;;;;5068256;27;20884;-62
2022/12/31 04:49:40;;;;;;;8.80;4.50;;;15.80;99.90;;;;;;5066843;27;20494;-62
2022/12/31 04:52:07;;;;;;;11.17;4.97;;;;;;;;;;5072236;27;20474;-62
2022/12/31 04:54:34;;;;;;;10.03;5.63;;;15.60;99.90;;;;;;5086594;27;21191;-62
2022/12/31 04:57:02;;;;;;;16.63;8.30;;;;;;;;;;5082325;27;20478;-62
2022/12/31 04:59:29;;;;;;;10.63;4.83;;;15.60;99.90;;;;;;5062023;27;20486;-61
2022/12/31 05:01:55;;;;;;;16.97;8.70;;;15.60;99.90;;;;;;5080197;28;20533;-63
2022/12/31 05:04:22;;;;;;;7.27;4.43;;;15.60;99.90;;;;;;5067628;27;20472;-62
2022/12/31 05:06:49;;;;;;;10.97;6.07;;;;;;;;;;5069545;27;20754;-62
2022/12/31 05:09:16;;;;;;;13.50;4.87;;;15.60;99.90;;;;;;5048479;27;20494;-62
2022/12/31 05:11:43;;;;;;;8.20;4.57;;;15.60;99.90;;;;;;5085009;27;20997;-63
2022/12/31 05:14:11;;;;;;;13.23;6.57;;;15.50;99.90;;;;;;5062812;27;20485;-62
2022/12/31 05:16:37;;;;;;;9.40;6.10;;;15.60;99.90;;;;;;5074296;27;20509;-63
2022/12/31 05:19:05;;;;;;;9.77;5.80;;;15.60;99.90;;;;;;5069114;27;21013;-62
2022/12/31 05:21:32;;;;;;;7.30;4.17;;;15.60;99.90;;;;;;5064377;28;20486;-63
2022/12/31 05:23:58;;;;;;;19.23;10.33;;;15.60;99.90;;;;;;5058787;28;20485;-63
2022/12/31 05:26:25;;;;;;;8.90;4.27;;;15.50;99.90;;;;;;5064178;28;20478;-62
2022/12/31 05:28:52;;;;;;;15.60;8.40;;;;;;;;;;5091361;27;20898;-63
2022/12/31 05:31:20;;;;;;;7.90;4.43;;;15.50;99.90;;;;;;5061145;27;20587;-62
2022/12/31 05:33:47;;;;;;;14.87;8.67;;;15.50;99.90;;;;;;5088132;27;20502;-62
2022/12/31 05:36:14;;;;;;;12.70;5.70;;;;;;;;;;5065678;28;20461;-62
2022/12/31 05:38:41;;;;;;;10.93;5.13;;;15.40;99.90;;;;;;5075896;27;20602;-62
2022/12/31 05:41:08;;;;;;;9.63;5.17;;;15.40;99.90;;;;;;5079855;27;20528;-62
2022/12/31 05:43:35;;;;;;;15.20;8.30;;;15.40;99.90;;;;;;5072487;27;20714;-62
2022/12/31 05:46:02;;;;;;;16.30;8.80;;;15.40;99.90;;;;;;5092506;27;20457;-62
2022/12/31 05:48:31;;;;;;;7.10;4.10;;;15.30;99.90;;;;;;5073843;28;20866;-62
2022/12/31 05:50:58;;;;;;;13.00;7.73;;;15.30;99.90;;;;;;5060917;27;20481;-61
2022/12/31 05:53:25;;;;;;;12.80;6.93;;;15.20;99.90;;;;;;5070395;27;20475;-61
2022/12/31 05:55:51;;;;;;;20.80;10.63;;;15.20;99.90;;;;;;5077105;27;20500;-62
2022/12/31 05:58:18;;;;;;;8.23;5.20;;;15.20;99.90;;;;;;5097300;27;20499;-62
2022/12/31 06:00:45;;;;;;;12.83;5.60;;;15.00;99.90;;;;;;5082730;27;20478;-62
2022/12/31 06:03:13;;;;;;;10.40;6.43;;;15.10;99.90;;;;;;5063372;27;20558;-62
2022/12/31 06:05:41;;;;;;;14.00;6.93;;;15.10;99.90;;;;;;5072584;27;20487;-62
2022/12/31 06:08:08;;;;;;;10.50;5.40;;;15.10;99.90;;;;;;5084448;27;20940;-62
2022/12/31 06:10:35;;;;;;;11.07;6.40;;;15.00;99.90;;;;;;5056616;28;21372;-62
2022/12/31 06:13:01;;;;;;;19.20;7.87;;;15.00;99.90;;;;;;5061283;28;20482;-62
2022/12/31 06:15:28;;;;;;;11.80;6.33;;;15.00;99.90;;;;;;5060028;28;20539;-62
2022/12/31 06:17:55;;;;;;;19.50;10.20;;;15.00;99.90;;;;;;5075577;28;20913;-62
2022/12/31 06:20:21;;;;;;;14.13;7.27;;;14.90;99.90;;;;;;5069467;28;20475;-62
2022/12/31 06:22:49;;;;;;;14.77;7.70;;;14.90;99.90;;;;;;5059571;27;20482;-62
2022/12/31 06:25:16;;;;;;;13.50;7.13;;;14.90;99.90;;;;;;5078460;27;20474;-62
2022/12/31 06:27:43;;;;;;;13.73;5.17;;;14.90;99.90;;;;;;5058324;28;20960;-62
2022/12/31 06:30:11;;;;;;;21.40;7.97;;;14.90;99.90;;;;;;5090883;27;20473;-62
2022/12/31 06:32:38;;;;;;;10.47;5.67;;;14.70;99.90;;;;;;5086185;27;21216;-62
2022/12/31 06:35:06;;;;;;;23.40;8.77;;;14.60;99.90;;;;;;5071696;27;20484;-62
2022/12/31 06:37:32;;;;;;;17.50;8.27;;;14.60;99.90;;;;;;5075957;27;20459;-62
2022/12/31 06:40:00;;;;;;;17.23;8.43;;;14.60;99.90;;;;;;5088665;27;20483;-61
2022/12/31 06:42:29;;;;;;;7.03;4.53;;;14.70;99.90;;;;;;5082499;27;20487;-62
2022/12/31 06:44:56;;;;;;;20.20;9.03;;;14.70;99.90;;;;;;5078505;27;20494;-62
2022/12/31 06:47:22;;;;;;;8.70;5.17;;;14.70;99.90;;;;;;5053511;28;21015;-61
2022/12/31 06:49:49;;;;;;;21.27;7.10;;;14.80;99.90;;;;;;5074431;27;20481;-62
2022/12/31 06:52:16;;;;;;;10.50;5.30;;;14.70;99.90;;;;;;5057721;28;20483;-62
2022/12/31 06:54:43;;;;;;;19.23;8.10;;;14.80;99.90;;;;;;5050278;28;20487;-62
2022/12/31 06:57:12;;;;;;;18.70;6.60;;;14.80;99.90;;;;;;5062743;27;20515;-62
2022/12/31 06:59:39;;;;;;;18.10;7.47;;;14.70;99.90;;;;;;5067316;27;20487;-62
2022/12/31 07:02:28;;;;;;;11.23;4.97;;;14.70;99.90;;;;;;5083548;27;20484;-62
2022/12/31 07:05:21;;;;;;;35.00;11.90;;;14.50;99.90;;;;;;5039297;28;20471;-61
2022/12/31 07:07:55;;;;;;;33.03;8.97;;;14.80;99.90;;;;;;5056563;28;20541;-62
2022/12/31 07:10:30;;;;;;;19.40;8.30;;;14.70;99.90;;;;;;5070450;27;20798;-62
2022/12/31 07:13:19;;;;;;;28.60;9.07;;;14.80;99.90;;;;;;5037544;28;20493;-62
2022/12/31 07:15:59;;;;;;;32.93;10.70;;;14.80;99.90;;;;;;5064750;27;20481;-62
2022/12/31 07:18:36;;;;;;;10.27;4.83;;;14.80;99.90;;;;;;5065973;27;20908;-61
2022/12/31 07:21:03;;;;;;;22.37;7.17;;;14.80;99.90;;;;;;5061522;28;20862;-62
2022/12/31 07:23:30;;;;;;;19.37;6.37;;;14.70;99.90;;;;;;5055158;28;20876;-62
2022/12/31 07:26:06;;;;;;;34.73;10.43;;;14.80;99.90;;;;;;5053251;28;20478;-61
2022/12/31 07:28:45;;;;;;;23.80;7.10;;;14.80;99.90;;;;;;5059315;28;20673;-62
2022/12/31 07:31:22;;;;;;;22.53;6.90;;;14.80;99.90;;;;;;5056809;28;20515;-63
2022/12/31 07:33:58;;;;;;;29.13;6.90;;;14.80;99.90;;;;;;5079489;27;20489;-63
2022/12/31 07:36:45;;;;;;;22.87;7.67;;;14.80;99.90;;;;;;5072032;27;20472;-62
2022/12/31 07:39:16;;;;;;;17.80;4.93;;;14.70;99.90;;;;;;5046127;28;20576;-62
2022/12/31 07:41:51;;;;;;;37.07;9.13;;;14.70;99.90;;;;;;5068628;28;20842;-62
2022/12/31 07:44:34;;;;;;;34.10;9.27;;;14.80;99.90;;;;;;5052846;28;20753;-62
2022/12/31 07:47:03;;;;;;;42.57;8.70;;;14.70;99.90;;;;;;5057399;27;20911;-62
2022/12/31 07:49:33;;;;;;;22.77;6.00;;;14.70;99.90;;;;;;5066897;28;20481;-63
2022/12/31 07:52:00;;;;;;;63.43;13.57;;;14.60;99.90;;;;;;5050694;28;21130;-62
2022/12/31 07:54:27;;;;;;;34.07;8.77;;;;;;;;;;5087312;27;20592;-62
2022/12/31 07:56:54;;;;;;;85.57;11.53;;;14.70;99.90;;;;;;5072723;27;20482;-62
2022/12/31 07:59:40;;;;;;;30.40;6.93;;;14.80;99.90;;;;;;5085511;27;20486;-62
2022/12/31 08:02:16;;;;;;;54.10;8.43;;;14.80;99.90;;;;;;5065783;27;20489;-62
2022/12/31 08:04:47;;;;;;;107.00;12.37;;;;;;;;;;5080782;27;20485;-62
2022/12/31 08:07:19;;;;;;;84.00;10.13;;;;;;;;;;5052350;28;20498;-62
2022/12/31 08:09:48;;;;;;;61.00;9.87;;;;;;;;;;5055498;28;20490;-62
2022/12/31 08:12:15;;;;;;;67.00;8.80;;;;;;;;;;5058251;28;20479;-62
2022/12/31 08:14:47;;;;;;;33.50;6.80;;;15.00;99.90;;;;;;5051079;27;20489;-61
2022/12/31 08:17:16;;;;;;;48.73;9.30;;;14.90;99.90;;;;;;5073337;27;20486;-62
2022/12/31 08:19:44;;;;;;;72.30;8.67;;;;;;;;;;5059570;28;20486;-61
2022/12/31 08:22:34;;;;;;;105.87;12.33;;;15.00;99.90;;;;;;5072354;27;20477;-62
2022/12/31 08:25:14;;;;;;;46.53;10.20;;;15.00;99.90;;;;;;5044335;27;20827;-62
2022/12/31 08:27:48;;;;;;;31.23;8.03;;;15.00;99.90;;;;;;5094251;27;20493;-62
2022/12/31 08:30:19;;;;;;;32.80;9.07;;;15.00;99.90;;;;;;5064277;28;20547;-62
2022/12/31 08:32:49;;;;;;;36.60;7.60;;;;;;;;;;5079582;27;20488;-63
2022/12/31 08:35:27;;;;;;;26.37;7.97;;;15.10;99.90;;;;;;5062592;28;20745;-62
2022/12/31 08:38:02;;;;;;;31.23;8.50;;;15.40;99.90;;;;;;5086691;27;20656;-62
2022/12/31 08:40:38;;;;;;;32.37;9.30;;;15.50;99.90;;;;;;5047197;28;20498;-61
2022/12/31 08:43:27;;;;;;;17.27;6.43;;;15.40;99.90;;;;;;5080271;27;20488;-61
2022/12/31 08:45:57;;;;;;;27.20;9.40;;;15.30;99.90;;;;;;5019560;28;20975;-60
2022/12/31 08:48:32;;;;;;;15.67;6.70;;;15.50;99.90;;;;;;5028200;28;20537;-62
2022/12/31 08:50:59;;;;;;;18.93;6.97;;;15.50;99.90;;;;;;5014856;28;20976;-61
2022/12/31 08:53:27;;;;;;;12.53;6.23;;;15.70;99.90;;;;;;5034213;28;20483;-62
2022/12/31 08:56:00;;;;;;;13.43;5.50;;;16.00;99.90;;;;;;5027403;28;20607;-61
2022/12/31 08:58:40;;;;;;;8.87;5.30;;;16.20;99.90;;;;;;5068005;27;21045;-62
2022/12/31 09:01:09;;;;;;;15.60;4.97;;;16.20;99.90;;;;;;5055678;27;20478;-62
2022/12/31 09:03:53;;;;;;;12.53;8.07;;;16.20;99.90;;;;;;5044837;28;20886;-62
2022/12/31 09:06:28;;;;;;;23.80;5.93;;;15.90;99.90;;;;;;5041637;28;20489;-61
2022/12/31 09:09:04;;;;;;;14.57;7.00;;;15.90;99.90;;;;;;5045498;28;20484;-61
2022/12/31 09:11:41;;;;;;;9.07;5.60;;;15.80;99.90;;;;;;5021211;28;21248;-62
2022/12/31 09:14:21;;;;;;;6.87;4.20;;;15.80;99.90;;;;;;5065729;28;21220;-62
2022/12/31 09:17:00;;;;;;;7.73;5.57;;;15.90;99.90;;;;;;5059313;28;20478;-62
2022/12/31 09:19:27;;;;;;;6.00;4.90;;;15.90;99.90;;;;;;5078213;28;20474;-62
2022/12/31 09:21:54;;;;;;;13.50;7.63;;;16.00;99.90;;;;;;5064754;27;20537;-62
2022/12/31 09:24:22;;;;;;;9.93;4.20;;;16.00;99.90;;;;;;5045993;28;20988;-63
2022/12/31 09:27:00;;;;;;;7.40;5.90;;;16.00;99.90;;;;;;5022454;28;20488;-62
2022/12/31 09:29:40;;;;;;;4.83;4.33;;;16.00;99.90;;;;;;5075402;27;20474;-62
2022/12/31 09:32:20;;;;;;;8.07;5.30;;;16.00;99.90;;;;;;5035975;28;20479;-62
2022/12/31 09:34:53;;;;;;;9.00;5.53;;;16.00;99.90;;;;;;5082637;27;20488;-62
2022/12/31 09:37:25;;;;;;;4.87;3.70;;;16.30;99.90;;;;;;5048826;27;20485;-62
2022/12/31 09:39:54;;;;;;;16.13;7.80;;;16.00;99.90;;;;;;5057502;27;20485;-62
2022/12/31 09:42:53;;;;;;;5.30;4.13;;;16.10;99.90;;;;;;5056241;27;20493;-61
2022/12/31 09:45:56;;;;;;;9.20;4.03;;;16.10;99.90;;;;;;5072077;27;20494;-62
2022/12/31 09:49:02;;;;;;;20.60;4.93;;;16.10;99.90;;;;;;5061720;28;20486;-62
2022/12/31 09:51:31;;;;;;;18.47;3.40;;;16.20;99.90;;;;;;5063357;27;20875;-62
2022/12/31 09:54:19;;;;;;;8.90;5.70;;;16.30;99.90;;;;;;5076514;27;20712;-62
2022/12/31 09:56:50;;;;;;;7.13;4.70;;;16.40;99.90;;;;;;5051942;28;20487;-62
2022/12/31 09:59:27;;;;;;;4.97;4.10;;;16.30;99.90;;;;;;5045909;27;20471;-61
2022/12/31 10:02:01;;;;;;;8.83;7.63;;;16.50;99.90;;;;;;5094087;27;20864;-62
2022/12/31 10:04:44;;;;;;;4.90;4.40;;;16.50;99.90;;;;;;5077750;27;20998;-63
2022/12/31 10:07:32;;;;;;;9.97;4.83;;;16.50;99.90;;;;;;5063507;27;20469;-62
2022/12/31 10:10:09;;;;;;;7.90;6.13;;;16.60;99.90;;;;;;5068960;27;20910;-63
2022/12/31 10:13:12;;;;;;;6.37;3.80;;;16.80;99.90;;;;;;5100745;27;20481;-63
2022/12/31 10:15:59;;;;;;;4.83;3.60;;;16.90;99.90;;;;;;5024441;28;20482;-63
2022/12/31 10:18:38;;;;;;;3.90;3.50;;;16.80;99.90;;;;;;5015621;28;20882;-62
2022/12/31 10:21:19;;;;;;;7.33;3.40;;;16.90;99.90;;;;;;5026286;28;20476;-63
2022/12/31 10:24:14;;;;;;;4.60;3.60;;;17.00;99.90;;;;;;5023354;28;20482;-63
2022/12/31 10:26:59;;;;;;;5.00;3.77;;;16.90;99.90;;;;;;5007942;28;20442;-63
2022/12/31 10:29:36;;;;;;;10.43;3.60;;;16.90;99.90;;;;;;5077962;27;20496;-63
2022/12/31 10:32:16;;;;;;;5.77;5.17;;;16.90;99.90;;;;;;5038622;28;21112;-62
2022/12/31 10:34:53;;;;;;;9.00;3.50;;;17.10;99.90;;;;;;5030242;28;20484;-63
2022/12/31 10:37:24;;;;;;;4.17;3.63;;;17.20;99.90;;;;;;5034652;28;20661;-63
2022/12/31 10:40:05;;;;;;;10.57;4.27;;;17.10;99.90;;;;;;5028138;28;20725;-63
2022/12/31 10:43:08;;;;;;;3.80;3.43;;;17.20;99.90;;;;;;5035994;28;20470;-62
2022/12/31 10:46:09;;;;;;;4.73;3.33;;;17.30;99.90;;;;;;5038819;28;20878;-63
2022/12/31 10:49:07;;;;;;;4.80;4.30;;;17.40;99.90;;;;;;5057503;28;20543;-63
2022/12/31 10:52:32;;;;;;;5.80;4.97;;;17.40;99.90;;;;;;5019600;28;20476;-63
2022/12/31 10:55:38;;;;;;;10.73;6.20;;;17.40;99.90;;;;;;4969945;28;20490;-63
2022/12/31 10:58:33;;;;;;;9.63;4.53;;;17.50;99.90;;;;;;5041040;28;20478;-63
2022/12/31 11:01:08;;;;;;;4.50;4.07;;;17.50;99.90;;;;;;5020158;28;20550;-63
2022/12/31 11:03:57;;;;;;;5.53;4.20;;;17.60;99.90;;;;;;5056687;28;20988;-63
2022/12/31 11:06:57;;;;;;;2.93;2.53;;;17.50;99.90;;;;;;5043402;28;20515;-63
2022/12/31 11:09:54;;;;;;;3.10;2.80;;;17.80;99.90;;;;;;5024282;28;20454;-62
2022/12/31 11:12:51;;;;;;;3.43;2.90;;;17.90;99.90;;;;;;5045356;28;20486;-63
2022/12/31 11:15:38;;;;;;;3.67;3.07;;;18.20;99.90;;;;;;5040668;28;20475;-62
2022/12/31 11:18:15;;;;;;;4.87;4.47;;;18.20;99.50;;;;;;5036584;28;21211;-63
2022/12/31 11:21:09;;;;;;;3.90;3.23;;;18.20;99.40;;;;;;5043991;28;21250;-62
2022/12/31 11:23:45;;;;;;;5.30;4.47;;;18.10;99.40;;;;;;5035467;28;20453;-62
2022/12/31 11:26:20;;;;;;;4.43;3.77;;;18.20;99.50;;;;;;5042339;28;20456;-62
2022/12/31 11:29:01;;;;;;;3.40;3.10;;;18.10;99.50;;;;;;5034089;28;20502;-63
2022/12/31 11:31:41;;;;;;;5.00;3.27;;;18.00;99.60;;;;;;5022122;28;20466;-62
2022/12/31 11:34:24;;;;;;;4.20;3.80;;;18.00;99.50;;;;;;5041800;28;20443;-63
2022/12/31 11:37:07;;;;;;;8.07;6.07;;;17.90;99.30;;;;;;5031288;28;20533;-62
2022/12/31 11:39:47;;;;;;;8.13;3.60;;;18.00;99.10;;;;;;5025206;28;20484;-63
2022/12/31 11:42:21;;;;;;;4.47;3.53;;;18.00;99.30;;;;;;5024574;28;20522;-63
2022/12/31 11:44:57;;;;;;;5.43;4.90;;;18.00;99.30;;;;;;5046695;28;20495;-63
2022/12/31 11:47:37;;;;;;;6.13;3.57;;;;;;;;;;5037474;28;20563;-63
2022/12/31 11:50:15;;;;;;;11.57;5.27;;;;;;;;;;5029586;28;20976;-62
2022/12/31 11:52:54;;;;;;;6.10;4.60;;;18.10;98.80;;;;;;5033547;28;21036;-63
2022/12/31 11:55:32;;;;;;;15.97;3.40;;;18.00;98.90;;;;;;5042914;28;21216;-63
2022/12/31 11:58:09;;;;;;;7.20;6.23;;;18.10;99.10;;;;;;5025537;28;20824;-63
2022/12/31 12:00:38;;;;;;;5.13;4.07;;;18.10;99.30;;;;;;5035052;28;20529;-63
2022/12/31 12:03:07;;;;;;;3.70;3.27;;;18.20;99.30;;;;;;5036850;28;20480;-63
2022/12/31 12:05:35;;;;;;;7.73;3.87;;;18.20;98.80;;;;;;5027397;28;20487;-62
2022/12/31 12:08:02;;;;;;;19.57;4.73;;;18.30;98.60;;;;;;5030747;28;20854;-63
2022/12/31 12:10:30;;;;;;;5.10;4.63;;;18.20;98.50;;;;;;5024515;28;20579;-63
2022/12/31 12:12:58;;;;;;;6.43;4.80;;;18.10;98.80;;;;;;5039018;28;20495;-63
2022/12/31 12:15:28;;;;;;;5.23;2.77;;;18.10;98.90;;;;;;5040256;28;20483;-62
2022/12/31 12:17:58;;;;;;;8.33;6.13;;;18.10;99.00;;;;;;5037393;28;20472;-62
2022/12/31 12:20:30;;;;;;;6.30;4.27;;;18.10;99.10;;;;;;5037224;28;20454;-62
2022/12/31 12:23:01;;;;;;;7.90;5.90;;;18.10;99.40;;;;;;5035693;28;20466;-62
2022/12/31 12:25:37;;;;;;;4.17;3.77;;;18.10;98.90;;;;;;5027958;28;20959;-62
2022/12/31 12:28:17;;;;;;;9.77;4.33;;;18.00;98.50;;;;;;5034874;28;20654;-63
2022/12/31 12:30:44;;;;;;;4.80;4.30;;;18.10;98.90;;;;;;5027896;28;20479;-62
2022/12/31 12:33:18;;;;;;;3.43;2.53;;;18.00;98.30;;;;;;5046563;28;20484;-62
2022/12/31 12:35:45;;;;;;;4.97;4.23;;;18.00;98.20;;;;;;5035756;28;20486;-63
2022/12/31 12:38:15;;;;;;;4.70;4.07;;;18.00;98.30;;;;;;5036561;28;20455;-62
2022/12/31 12:40:51;;;;;;;7.50;3.00;;;17.70;97.90;;;;;;5038420;28;20541;-62
2022/12/31 12:43:22;;;;;;;3.57;2.23;;;17.80;98.20;;;;;;5044981;28;20471;-62
2022/12/31 12:45:49;;;;;;;13.77;5.10;;;18.00;98.40;;;;;;5055639;28;20575;-61
2022/12/31 12:48:25;;;;;;;3.20;2.90;;;17.90;98.30;;;;;;5026132;28;20456;-62
2022/12/31 12:50:52;;;;;;;10.50;5.47;;;18.00;98.90;;;;;;5036004;28;20440;-63
2022/12/31 12:53:36;;;;;;;7.50;2.80;;;18.00;98.00;;;;;;5047219;28;20533;-63
2022/12/31 12:56:11;;;;;;;4.57;3.97;;;18.00;97.90;;;;;;5051581;28;20486;-62
2022/12/31 12:58:50;;;;;;;5.07;3.53;;;18.00;97.90;;;;;;5038982;28;20487;-63
2022/12/31 13:01:27;;;;;;;4.17;3.00;;;18.10;98.00;;;;;;5031555;28;20477;-63
2022/12/31 13:04:19;;;;;;;7.27;5.23;;;18.00;97.80;;;;;;5018990;28;20487;-63
2022/12/31 13:06:58;;;;;;;4.90;3.33;;;17.90;97.60;;;;;;5035641;28;21103;-62
2022/12/31 13:09:39;;;;;;;10.67;3.77;;;18.00;98.20;;;;;;5059934;28;20458;-63
2022/12/31 13:12:17;;;;;;;4.47;2.70;;;17.90;97.80;;;;;;5050122;28;20483;-62
2022/12/31 13:14:52;;;;;;;4.63;4.00;;;17.90;97.60;;;;;;5051267;28;20450;-63
2022/12/31 13:17:43;;;;;;;3.00;2.63;;;18.00;97.70;;;;;;5036006;28;20457;-63
2022/12/31 13:20:17;;;;;;;7.50;5.23;;;17.80;97.80;;;;;;5032282;28;20560;-63
2022/12/31 13:22:51;;;;;;;9.77;4.07;;;17.70;97.80;;;;;;5036899;28;20460;-63
2022/12/31 13:25:27;;;;;;;3.60;2.90;;;17.60;97.30;;;;;;5053868;28;20675;-63